Time,TemperatureF,DewpointF,PressureIn,WindDirection,WindDirectionDegrees,WindSpeedMPH,WindSpeedGustMPH,Humidity,HourlyPrecipIn,Conditions,Clouds,dailyrainin,SoftwareType,DateUTC
2013-01-21 00:02:00,24.0,20.0,-100.00,South,190,1.0,1.0,84,-99.99,,,-99.99,,2013-01-21 08:02:00,
2013-01-21 01:02:00,23.0,19.0,-100.00,SSW,205,3.0,3.0,84,-99.99,,,-99.99,,2013-01-21 09:02:00,
2013-01-21 01:12:00,23.0,19.0,-100.00,SSW,205,3.0,3.0,84,-99.99,,,-99.99,,2013-01-21 09:12:00,
2013-01-21 02:02:00,22.0,18.0,-100.00,South,185,5.0,7.0,84,-99.99,,,-99.99,,2013-01-21 10:02:00,
2013-01-21 03:02:00,21.0,17.0,-100.00,South,180,6.0,8.0,84,-99.99,,,-99.99,,2013-01-21 11:02:00,
2013-01-21 03:12:00,21.0,17.0,-100.00,South,180,6.0,8.0,84,-99.99,,,-99.99,,2013-01-21 11:12:00,
2013-01-21 04:02:00,21.0,17.0,-100.00,SSE,165,6.0,7.0,84,-99.99,,,-99.99,,2013-01-21 12:02:00,
2013-01-21 05:02:00,19.0,15.0,-100.00,South,180,6.0,10.0,84,-99.99,,,-99.99,,2013-01-21 13:02:00,
2013-01-21 05:10:00,19.0,16.0,-100.00,South,170,5.0,7.0,87,-99.99,,,-99.99,,2013-01-21 13:10:00,
2013-01-21 05:12:00,19.0,15.0,-100.00,South,180,6.0,10.0,84,-99.99,,,-99.99,,2013-01-21 13:12:00,
2013-01-21 06:03:00,19.0,16.0,-100.00,South,170,5.0,7.0,87,-99.99,,,-99.99,,2013-01-21 14:03:00,
2013-01-21 06:10:00,19.0,16.0,-100.00,South,185,3.0,6.0,87,-99.99,,,-99.99,,2013-01-21 14:10:00,
2013-01-21 07:03:00,19.0,16.0,-100.00,South,185,3.0,6.0,87,-99.99,,,-99.99,,2013-01-21 15:03:00,
2013-01-21 08:03:00,20.0,16.0,-100.00,South,190,6.0,9.0,84,-99.99,,,-99.99,,2013-01-21 16:03:00,
2013-01-21 08:10:00,20.0,17.0,-100.00,ESE,110,3.0,5.0,87,-99.99,,,-99.99,,2013-01-21 16:10:00,
2013-01-21 09:02:00,20.0,17.0,-100.00,ESE,110,3.0,5.0,87,-99.99,,,-99.99,,2013-01-21 17:02:00,
2013-01-21 10:03:00,19.0,16.0,-100.00,South,170,6.0,12.0,87,-99.99,,,-99.99,,2013-01-21 18:03:00,
2013-01-21 11:20:00,22.0,17.0,-100.00,South,190,2.0,3.0,80,-99.99,,,-99.99,,2013-01-21 19:20:00,
2013-01-21 12:03:00,22.0,17.0,-100.00,South,190,2.0,3.0,80,-99.99,,,-99.99,,2013-01-21 20:03:00,
2013-01-21 12:10:00,22.0,18.0,-100.00,ESE,120,1.0,5.0,84,-99.99,,,-99.99,,2013-01-21 20:10:00,
2013-01-21 12:12:00,22.0,17.0,-100.00,South,190,2.0,3.0,80,-99.99,,,-99.99,,2013-01-21 20:12:00,
2013-01-21 13:03:00,22.0,18.0,-100.00,ESE,120,1.0,5.0,84,-99.99,,,-99.99,,2013-01-21 21:03:00,
2013-01-21 14:03:00,22.0,17.0,-100.00,NE,55,2.0,6.0,80,-99.99,,,-99.99,,2013-01-21 22:03:00,
2013-01-21 14:10:00,23.0,18.0,-100.00,South,185,3.0,6.0,80,-99.99,,,-99.99,,2013-01-21 22:10:00,
2013-01-21 14:12:00,22.0,17.0,-100.00,NE,55,2.0,6.0,80,-99.99,,,-99.99,,2013-01-21 22:12:00,
2013-01-21 15:03:00,23.0,18.0,-100.00,South,185,3.0,6.0,80,-99.99,,,-99.99,,2013-01-21 23:03:00,
2013-01-21 16:02:00,23.0,18.0,-100.00,South,180,2.0,5.0,80,-99.99,,,-99.99,,2013-01-22 00:02:00,
2013-01-21 16:12:00,23.0,18.0,-100.00,South,180,2.0,5.0,80,-99.99,,,-99.99,,2013-01-22 00:12:00,
2013-01-21 17:02:00,23.0,18.0,-100.00,NE,40,3.0,5.0,80,-99.99,,,-99.99,,2013-01-22 01:02:00,
2013-01-21 18:02:00,23.0,18.0,-100.00,ENE,70,2.0,5.0,80,-99.99,,,-99.99,,2013-01-22 02:02:00,
2013-01-21 18:12:00,23.0,18.0,-100.00,ENE,70,2.0,5.0,80,-99.99,,,-99.99,,2013-01-22 02:12:00,
2013-01-21 19:02:00,23.0,18.0,-100.00,ESE,115,2.0,5.0,80,-99.99,,,-99.99,,2013-01-22 03:02:00,
2013-01-21 20:02:00,23.0,18.0,-100.00,SSE,160,1.0,2.0,80,-99.99,,,-99.99,,2013-01-22 04:02:00,
2013-01-21 20:12:00,23.0,18.0,-100.00,SSE,160,1.0,2.0,80,-99.99,,,-99.99,,2013-01-22 04:12:00,
2013-01-21 21:03:00,22.0,18.0,-100.00,East,95,3.0,6.0,84,-99.99,,,-99.99,,2013-01-22 05:03:00,
2013-01-21 22:02:00,22.0,18.0,-100.00,SSW,205,1.0,3.0,84,-99.99,,,-99.99,,2013-01-22 06:02:00,
2013-01-21 22:12:00,22.0,18.0,-100.00,SSW,205,1.0,3.0,84,-99.99,,,-99.99,,2013-01-22 06:12:00,
2013-01-21 23:02:00,22.0,18.0,-100.00,ENE,75,2.0,3.0,84,-99.99,,,-99.99,,2013-01-22 07:02:00,
2013-01-21 23:10:00,22.0,17.0,-100.00,East,80,3.0,6.0,80,-99.99,,,-99.99,,2013-01-22 07:10:00,